createdAt,value
2022-10-04T00:00:21.130Z,11.29
2022-10-04T00:02:14.147Z,11.29
2022-10-04T00:03:14.134Z,11.22
2022-10-04T00:05:18.080Z,11.15
2022-10-04T00:06:18.097Z,11.11
2022-10-04T00:08:22.586Z,11.14
2022-10-04T00:09:22.126Z,11.18
2022-10-04T00:11:26.126Z,11.18
2022-10-04T00:12:26.144Z,11.11
2022-10-04T00:14:30.634Z,11.04
2022-10-04T00:15:30.177Z,11.07
2022-10-04T00:17:34.185Z,11.07
2022-10-04T00:18:34.197Z,11.07
2022-10-04T00:20:38.688Z,11.03
2022-10-04T00:21:38.232Z,11.10
2022-10-04T00:23:42.233Z,11.09
2022-10-04T00:24:42.246Z,11.07
2022-10-04T00:26:46.769Z,11.04
2022-10-04T00:27:46.283Z,11.04
2022-10-04T00:29:50.293Z,10.96
2022-10-04T00:30:50.302Z,11.02
2022-10-04T00:32:54.796Z,11.06
2022-10-04T00:33:54.327Z,11.07
2022-10-04T00:35:58.325Z,11.10
2022-10-04T00:36:58.345Z,11.21
2022-10-04T00:39:02.836Z,11.18
2022-10-04T00:40:02.382Z,11.21
2022-10-04T00:41:55.306Z,11.22
2022-10-04T00:42:55.319Z,11.19
2022-10-04T00:44:59.803Z,11.24
2022-10-04T00:45:59.373Z,11.19
2022-10-04T00:48:03.355Z,11.22
2022-10-04T00:49:03.369Z,11.19
2022-10-04T00:51:07.855Z,11.14
2022-10-04T00:52:07.398Z,11.06
2022-10-04T00:54:11.408Z,11.02
2022-10-04T00:55:11.417Z,11.03
2022-10-04T00:57:15.908Z,11.04
2022-10-04T00:58:15.441Z,11.00
2022-10-04T01:00:08.620Z,11.03
2022-10-04T01:01:08.655Z,11.02
2022-10-04T01:03:13.119Z,11.00
2022-10-04T01:04:12.645Z,10.99
2022-10-04T01:06:16.675Z,11.14
2022-10-04T01:07:16.689Z,11.04
2022-10-04T01:09:21.188Z,11.04
2022-10-04T01:10:20.725Z,11.02
2022-10-04T01:12:13.658Z,11.03
2022-10-04T01:13:13.670Z,10.99
2022-10-04T01:15:18.156Z,10.86
2022-10-04T01:16:17.748Z,10.86
2022-10-04T01:18:21.707Z,10.92
2022-10-04T01:19:21.718Z,10.94
2022-10-04T01:21:26.218Z,10.88
2022-10-04T01:22:25.739Z,10.91
2022-10-04T01:24:29.741Z,10.91
2022-10-04T01:25:29.759Z,10.81
2022-10-04T01:27:34.246Z,10.79
2022-10-04T01:28:33.833Z,10.89
2022-10-04T01:30:37.784Z,10.94
2022-10-04T01:31:37.902Z,10.88
2022-10-04T01:33:42.284Z,10.88
2022-10-04T01:34:41.817Z,10.89
2022-10-04T01:36:45.832Z,10.88
2022-10-04T01:37:45.849Z,10.91
2022-10-04T01:39:51.832Z,10.86
2022-10-04T01:40:49.870Z,10.92
2022-10-04T01:42:53.878Z,10.88
2022-10-04T01:43:53.897Z,10.92
2022-10-04T01:45:58.439Z,10.88
2022-10-04T01:46:57.941Z,10.81
2022-10-04T01:48:51.054Z,10.84
2022-10-04T01:49:51.065Z,10.86
2022-10-04T01:51:44.547Z,10.82
2022-10-04T01:52:44.009Z,10.89
2022-10-04T01:54:48.020Z,10.89
2022-10-04T01:55:48.043Z,10.92
2022-10-04T01:57:52.534Z,10.97
2022-10-04T01:58:52.056Z,10.97
2022-10-04T02:00:56.130Z,11.10
2022-10-04T02:01:56.085Z,11.03
2022-10-04T02:04:01.066Z,11.07
2022-10-04T02:05:00.227Z,11.03
2022-10-04T02:07:04.108Z,11.02
2022-10-04T02:08:04.115Z,11.03
2022-10-04T02:09:57.593Z,10.91
2022-10-04T02:10:57.274Z,10.97
2022-10-04T02:13:01.275Z,11.00
2022-10-04T02:14:01.285Z,10.96
2022-10-04T02:16:05.798Z,11.02
2022-10-04T02:17:05.305Z,10.96
2022-10-04T02:19:09.335Z,10.97
2022-10-04T02:20:09.322Z,10.94
2022-10-04T02:22:02.797Z,11.06
2022-10-04T02:23:02.272Z,10.99
2022-10-04T02:25:06.291Z,10.96
2022-10-04T02:26:06.289Z,10.96
2022-10-04T02:28:11.086Z,10.94
2022-10-04T02:29:10.318Z,10.92
2022-10-04T02:31:14.378Z,10.88
2022-10-04T02:32:14.331Z,10.84
2022-10-04T02:34:07.809Z,10.79
2022-10-04T02:35:07.492Z,10.84
2022-10-04T02:37:00.612Z,10.71
2022-10-04T02:38:00.623Z,10.78
2022-10-04T02:40:05.105Z,10.78
2022-10-04T02:41:04.640Z,10.79
2022-10-04T02:43:08.651Z,10.79
2022-10-04T02:44:08.663Z,10.78
2022-10-04T02:46:13.220Z,10.79
2022-10-04T02:47:12.682Z,10.82
2022-10-04T02:49:16.691Z,10.66
2022-10-04T02:50:16.706Z,10.64
2022-10-04T02:52:10.178Z,10.60
2022-10-04T02:53:09.647Z,10.67
2022-10-04T02:55:13.660Z,10.61
2022-10-04T02:56:13.673Z,10.63
2022-10-04T02:58:18.168Z,10.63
2022-10-04T02:59:17.693Z,10.53
2022-10-04T03:01:21.761Z,10.61
2022-10-04T03:02:29.134Z,10.64
2022-10-04T03:04:26.202Z,10.56
2022-10-04T03:05:25.733Z,10.60
2022-10-04T03:07:29.774Z,10.53
2022-10-04T03:08:29.760Z,10.51
2022-10-04T03:10:34.236Z,10.45
2022-10-04T03:11:33.765Z,10.40
2022-10-04T03:13:37.770Z,10.40
2022-10-04T03:14:37.837Z,10.40
2022-10-04T03:16:42.326Z,10.41
2022-10-04T03:17:41.801Z,10.42
2022-10-04T03:19:45.818Z,10.40
2022-10-04T03:20:45.832Z,10.38
2022-10-04T03:22:50.319Z,10.34
2022-10-04T03:23:49.856Z,10.29
2022-10-04T03:25:53.858Z,10.27
2022-10-04T03:26:53.873Z,10.30
2022-10-04T03:28:58.377Z,10.29
2022-10-04T03:29:59.283Z,10.29
2022-10-04T03:31:50.900Z,10.27
2022-10-04T03:32:50.846Z,10.29
2022-10-04T03:34:55.332Z,10.29
2022-10-04T03:35:54.858Z,10.29
2022-10-04T03:37:58.880Z,10.29
2022-10-04T03:38:58.894Z,10.29
2022-10-04T03:41:03.380Z,10.29
2022-10-04T03:42:02.919Z,10.32
2022-10-04T03:44:06.931Z,10.30
2022-10-04T03:45:06.951Z,10.29
2022-10-04T03:47:11.434Z,10.30
2022-10-04T03:48:10.958Z,10.29
2022-10-04T03:50:14.992Z,10.38
2022-10-04T03:51:15.001Z,10.36
2022-10-04T03:53:20.972Z,10.42
2022-10-04T03:54:19.005Z,10.40
2022-10-04T03:56:23.014Z,10.41
2022-10-04T03:57:23.024Z,10.47
2022-10-04T03:59:27.532Z,10.41
2022-10-04T04:00:27.063Z,10.38
2022-10-04T04:02:20.086Z,10.40
2022-10-04T04:03:19.994Z,10.30
2022-10-04T04:05:24.479Z,10.30
2022-10-04T04:06:24.018Z,10.29
2022-10-04T04:08:28.047Z,10.32
2022-10-04T04:09:28.054Z,10.26
2022-10-04T04:11:32.577Z,10.33
2022-10-04T04:12:32.076Z,10.36
2022-10-04T04:14:36.082Z,10.34
2022-10-04T04:15:36.143Z,10.45
2022-10-04T04:17:40.586Z,10.38
2022-10-04T04:18:40.117Z,10.42
2022-10-04T04:20:44.135Z,10.53
2022-10-04T04:21:44.156Z,10.48
2022-10-04T04:23:48.648Z,10.51
2022-10-04T04:24:48.178Z,10.48
2022-10-04T04:26:52.170Z,10.44
2022-10-04T04:27:52.290Z,10.40
2022-10-04T04:29:56.673Z,10.40
2022-10-04T04:30:56.211Z,10.38
2022-10-04T04:33:00.670Z,10.36
2022-10-04T04:34:00.229Z,10.44
2022-10-04T04:36:04.718Z,10.38
2022-10-04T04:37:04.253Z,10.36
2022-10-04T04:39:08.272Z,10.38
2022-10-04T04:40:08.273Z,10.38
2022-10-04T04:42:01.746Z,10.45
2022-10-04T04:43:01.223Z,10.44
2022-10-04T04:45:05.232Z,10.45
2022-10-04T04:46:25.976Z,10.55
2022-10-04T04:48:09.740Z,10.59
2022-10-04T04:49:09.286Z,10.51
2022-10-04T04:51:13.302Z,10.40
2022-10-04T04:52:13.322Z,10.38
2022-10-04T04:54:17.799Z,10.36
2022-10-04T04:55:17.327Z,10.34
2022-10-04T04:57:21.343Z,10.44
2022-10-04T04:58:21.356Z,10.41
2022-10-04T05:00:26.347Z,10.42
2022-10-04T05:01:25.397Z,10.44
2022-10-04T05:03:29.383Z,10.40
2022-10-04T05:04:29.399Z,10.41
2022-10-04T05:06:33.887Z,10.52
2022-10-04T05:07:33.415Z,10.53
2022-10-04T05:09:37.426Z,10.53
2022-10-04T05:10:37.434Z,10.61
2022-10-04T05:12:30.907Z,10.53
2022-10-04T05:13:30.386Z,10.63
2022-10-04T05:15:34.396Z,10.64
2022-10-04T05:16:34.457Z,10.64
2022-10-04T05:18:38.905Z,10.53
2022-10-04T05:19:38.434Z,10.53
2022-10-04T05:21:43.011Z,10.56
2022-10-04T05:22:42.459Z,10.52
2022-10-04T05:24:46.954Z,10.52
2022-10-04T05:25:46.478Z,10.59
2022-10-04T05:27:50.548Z,10.56
2022-10-04T05:28:50.502Z,10.51
2022-10-04T05:30:54.990Z,10.51
2022-10-04T05:31:54.590Z,10.45
2022-10-04T05:33:58.529Z,10.42
2022-10-04T05:34:58.542Z,10.42
2022-10-04T05:37:03.049Z,10.33
2022-10-04T05:38:02.570Z,10.38
2022-10-04T05:40:06.579Z,10.25
2022-10-04T05:41:06.591Z,10.26
2022-10-04T05:43:11.081Z,10.30
2022-10-04T05:44:10.610Z,10.26
2022-10-04T05:46:14.706Z,10.26
2022-10-04T05:47:14.637Z,10.26
2022-10-04T05:49:19.718Z,10.04
2022-10-04T05:50:18.655Z,10.04
2022-10-04T05:52:11.590Z,10.15
2022-10-04T05:53:11.603Z,10.14
2022-10-04T05:55:16.092Z,10.05
2022-10-04T05:56:15.620Z,10.09
2022-10-04T05:58:20.633Z,10.22
2022-10-04T05:59:20.649Z,10.25
2022-10-04T06:01:25.174Z,10.17
2022-10-04T06:02:24.715Z,10.25
2022-10-04T06:04:28.684Z,10.30
2022-10-04T06:05:29.323Z,10.26
2022-10-04T06:07:33.177Z,10.29
2022-10-04T06:08:32.705Z,10.32
2022-10-04T06:10:36.714Z,10.26
2022-10-04T06:11:36.730Z,10.26
2022-10-04T06:13:41.218Z,10.36
2022-10-04T06:14:40.750Z,10.40
2022-10-04T06:16:44.829Z,10.40
2022-10-04T06:17:44.777Z,10.51
2022-10-04T06:19:49.256Z,10.61
2022-10-04T06:20:48.795Z,10.64
2022-10-04T06:22:52.806Z,10.66
2022-10-04T06:23:52.818Z,10.59
2022-10-04T06:25:57.306Z,10.63
2022-10-04T06:26:56.839Z,10.74
2022-10-04T06:29:00.852Z,10.74
2022-10-04T06:30:00.872Z,10.82
2022-10-04T06:31:57.040Z,10.91
2022-10-04T06:32:53.815Z,10.85
2022-10-04T06:34:57.819Z,10.89
2022-10-04T06:35:57.837Z,10.82
2022-10-04T06:38:02.334Z,10.76
2022-10-04T06:39:04.223Z,10.78
2022-10-04T06:41:05.868Z,10.82
2022-10-04T06:42:05.883Z,10.71
2022-10-04T06:44:10.379Z,10.68
2022-10-04T06:45:09.920Z,10.81
2022-10-04T06:47:13.923Z,10.79
2022-10-04T06:48:13.937Z,10.79
2022-10-04T06:50:18.425Z,10.78
2022-10-04T06:51:17.960Z,10.82
2022-10-04T06:53:21.964Z,10.82
2022-10-04T06:54:21.978Z,10.91
2022-10-04T06:56:26.465Z,10.88
2022-10-04T06:57:26.001Z,10.99
2022-10-04T06:59:30.012Z,11.02
2022-10-04T07:00:30.021Z,11.04
2022-10-04T07:02:23.543Z,11.17
2022-10-04T07:03:22.985Z,11.15
2022-10-04T07:05:26.994Z,11.29
2022-10-04T07:06:27.012Z,11.37
2022-10-04T07:08:31.495Z,11.60
2022-10-04T07:09:31.039Z,11.57
2022-10-04T07:11:35.089Z,11.67
2022-10-04T07:12:35.061Z,11.73
2022-10-04T07:14:40.048Z,11.73
2022-10-04T07:15:39.657Z,11.72
2022-10-04T07:16:39.608Z,11.88
2022-10-04T07:17:39.631Z,11.90
2022-10-04T07:18:39.655Z,11.86
2022-10-04T07:19:39.675Z,11.99
2022-10-04T07:20:39.700Z,12.04
2022-10-04T07:21:39.744Z,12.07
2022-10-04T07:22:39.742Z,12.19
2022-10-04T07:23:39.771Z,12.13
2022-10-04T07:24:39.792Z,12.24
2022-10-04T07:25:39.819Z,12.34
2022-10-04T07:26:39.852Z,12.31
2022-10-04T07:27:39.860Z,12.34
2022-10-04T07:28:39.945Z,12.34
2022-10-04T07:29:42.089Z,12.28
2022-10-04T07:30:40.001Z,12.32
2022-10-04T07:31:39.948Z,12.32
2022-10-04T07:32:39.973Z,12.34
2022-10-04T07:33:39.999Z,12.31
2022-10-04T07:34:40.027Z,12.34
2022-10-04T07:35:40.040Z,12.47
2022-10-04T07:36:40.065Z,12.46
2022-10-04T07:37:40.090Z,12.53
2022-10-04T07:38:40.114Z,12.60
2022-10-04T07:39:40.132Z,12.57
2022-10-04T07:40:40.161Z,12.67
2022-10-04T07:41:40.351Z,12.70
2022-10-04T07:42:40.206Z,12.71
2022-10-04T07:43:40.230Z,12.74
2022-10-04T07:44:40.253Z,12.75
2022-10-04T07:45:40.281Z,12.77
2022-10-04T07:46:40.299Z,12.75
2022-10-04T07:47:40.320Z,12.77
2022-10-04T07:48:40.342Z,12.79
2022-10-04T07:49:40.370Z,12.78
2022-10-04T07:50:40.393Z,12.85
2022-10-04T07:51:40.685Z,12.87
2022-10-04T07:52:40.441Z,13.04
2022-10-04T07:53:40.460Z,12.96
2022-10-04T07:54:40.486Z,12.97
2022-10-04T07:55:40.522Z,13.07
2022-10-04T07:56:40.533Z,13.11
2022-10-04T07:57:40.599Z,13.14
2022-10-04T07:58:45.395Z,13.12
2022-10-04T07:59:40.618Z,13.14
2022-10-04T08:00:40.626Z,13.12
2022-10-04T08:01:40.810Z,13.15
2022-10-04T08:02:40.816Z,13.20
2022-10-04T08:03:40.694Z,13.30
2022-10-04T08:04:40.722Z,13.38
2022-10-04T08:05:40.744Z,13.36
2022-10-04T08:06:41.250Z,13.38
2022-10-04T08:07:40.788Z,13.39
2022-10-04T08:08:40.812Z,13.55
2022-10-04T08:09:40.838Z,13.59
2022-10-04T08:10:40.868Z,13.73
2022-10-04T08:11:41.149Z,13.66
2022-10-04T08:12:40.909Z,13.81
2022-10-04T08:13:40.930Z,13.75
2022-10-04T08:14:40.958Z,13.81
2022-10-04T08:15:41.038Z,13.71
2022-10-04T08:16:41.376Z,13.73
2022-10-04T08:17:41.025Z,13.66
2022-10-04T08:18:41.052Z,13.60
2022-10-04T08:19:41.071Z,13.63
2022-10-04T08:20:41.098Z,13.62
2022-10-04T08:21:41.121Z,13.69
2022-10-04T08:22:41.149Z,13.57
2022-10-04T08:23:41.174Z,13.66
2022-10-04T08:24:41.194Z,13.78
2022-10-04T08:25:41.214Z,13.77
2022-10-04T08:26:41.357Z,13.77
2022-10-04T08:27:41.280Z,13.71
2022-10-04T08:28:41.284Z,13.91
2022-10-04T08:29:41.330Z,13.92
2022-10-04T08:30:41.370Z,13.88
2022-10-04T08:31:41.354Z,13.99
2022-10-04T08:32:41.381Z,13.96
2022-10-04T08:33:41.399Z,14.07
2022-10-04T08:34:41.428Z,14.03
2022-10-04T08:35:41.453Z,14.15
2022-10-04T08:36:41.816Z,14.17
2022-10-04T08:37:41.499Z,14.20
2022-10-04T08:38:41.527Z,14.28
2022-10-04T08:39:41.550Z,14.37
2022-10-04T08:40:41.571Z,14.33
2022-10-04T08:41:41.595Z,14.39
2022-10-04T08:42:41.621Z,14.39
2022-10-04T08:43:41.640Z,14.40
2022-10-04T08:44:41.666Z,14.46
2022-10-04T08:45:41.696Z,14.47
2022-10-04T08:46:42.146Z,14.51
2022-10-04T08:47:41.739Z,14.55
2022-10-04T08:48:41.764Z,14.70
2022-10-04T08:49:41.785Z,14.69
2022-10-04T08:50:41.809Z,14.75
2022-10-04T08:51:41.829Z,14.75
2022-10-04T08:52:41.858Z,14.78
2022-10-04T08:53:41.879Z,14.83
2022-10-04T08:54:41.908Z,14.89
2022-10-04T08:55:41.928Z,14.86
2022-10-04T08:56:42.220Z,14.98
2022-10-04T08:57:41.974Z,14.95
2022-10-04T08:58:42.002Z,14.96
2022-10-04T08:59:42.023Z,14.94
2022-10-04T09:00:42.050Z,15.09
2022-10-04T09:01:42.117Z,15.11
2022-10-04T09:02:42.186Z,15.14
2022-10-04T09:03:42.124Z,15.21
2022-10-04T09:04:42.145Z,15.20
2022-10-04T09:05:42.173Z,15.34
2022-10-04T09:06:42.431Z,15.38
2022-10-04T09:07:42.219Z,15.39
2022-10-04T09:08:42.243Z,15.41
2022-10-04T09:09:42.267Z,15.44
2022-10-04T09:10:42.292Z,15.41
2022-10-04T09:11:42.316Z,15.53
2022-10-04T09:12:42.341Z,15.59
2022-10-04T09:13:42.362Z,15.60
2022-10-04T09:14:42.393Z,15.71
2022-10-04T09:15:42.476Z,15.75
2022-10-04T09:16:42.742Z,15.78
2022-10-04T09:17:42.463Z,15.80
2022-10-04T09:18:42.492Z,15.87
2022-10-04T09:19:42.510Z,15.92
2022-10-04T09:20:42.538Z,15.97
2022-10-04T09:21:42.561Z,16.09
2022-10-04T09:22:42.591Z,16.12
2022-10-04T09:23:42.610Z,16.20
2022-10-04T09:24:42.647Z,16.17
2022-10-04T09:25:42.662Z,16.20
2022-10-04T09:26:42.950Z,16.23
2022-10-04T09:27:56.342Z,16.33
2022-10-04T09:28:42.778Z,16.30
2022-10-04T09:29:42.760Z,16.28
2022-10-04T09:30:42.820Z,16.43
2022-10-04T09:31:42.811Z,16.48
2022-10-04T09:32:42.828Z,16.46
2022-10-04T09:33:42.859Z,16.56
2022-10-04T09:34:42.885Z,16.61
2022-10-04T09:35:42.906Z,16.73
2022-10-04T09:36:43.209Z,16.64
2022-10-04T09:37:42.955Z,16.75
2022-10-04T09:38:42.982Z,16.82
2022-10-04T09:39:43.008Z,16.82
2022-10-04T09:40:47.074Z,16.88
2022-10-04T09:41:43.053Z,16.93
2022-10-04T09:42:43.083Z,16.89
2022-10-04T09:43:43.107Z,16.86
2022-10-04T09:44:43.133Z,16.93
2022-10-04T09:45:43.157Z,16.91
2022-10-04T09:46:43.538Z,16.94
2022-10-04T09:47:43.206Z,17.11
2022-10-04T09:48:43.231Z,17.03
2022-10-04T09:49:43.254Z,17.04
2022-10-04T09:50:43.283Z,17.07
2022-10-04T09:51:43.307Z,17.08
2022-10-04T09:52:43.334Z,17.16
2022-10-04T09:53:43.358Z,17.19
2022-10-04T09:54:44.493Z,17.25
2022-10-04T09:55:43.408Z,17.25
2022-10-04T09:56:43.625Z,17.28
2022-10-04T09:57:43.460Z,17.28
2022-10-04T09:58:43.495Z,17.43
2022-10-04T09:59:43.511Z,17.51
2022-10-04T10:00:43.533Z,17.41
2022-10-04T10:01:43.623Z,17.43
2022-10-04T10:02:43.666Z,17.40
2022-10-04T10:03:43.609Z,17.48
2022-10-04T10:04:43.634Z,17.54
2022-10-04T10:05:43.659Z,17.59
2022-10-04T10:06:44.048Z,17.64
2022-10-04T10:07:43.712Z,17.70
2022-10-04T10:08:43.739Z,17.63
2022-10-04T10:09:43.764Z,17.74
2022-10-04T10:10:43.790Z,17.74
2022-10-04T10:11:44.040Z,17.81
2022-10-04T10:12:43.837Z,17.74
2022-10-04T10:13:43.868Z,17.74
2022-10-04T10:14:43.894Z,17.77
2022-10-04T10:15:43.980Z,17.82
2022-10-04T10:16:44.128Z,17.86
2022-10-04T10:17:43.967Z,17.84
2022-10-04T10:18:43.993Z,17.96
2022-10-04T10:19:44.018Z,17.95
2022-10-04T10:20:44.042Z,18.02
2022-10-04T10:21:44.304Z,17.95
2022-10-04T10:22:44.096Z,17.95
2022-10-04T10:23:44.123Z,17.99
2022-10-04T10:24:44.181Z,18.10
2022-10-04T10:25:44.174Z,18.08
2022-10-04T10:26:44.537Z,18.10
2022-10-04T10:27:44.226Z,18.10
2022-10-04T10:28:44.249Z,18.17
2022-10-04T10:29:44.278Z,18.10
2022-10-04T10:30:44.300Z,18.10
2022-10-04T10:31:47.679Z,18.00
2022-10-04T10:32:44.352Z,18.11
2022-10-04T10:33:44.375Z,18.12
2022-10-04T10:34:44.408Z,18.08
2022-10-04T10:35:44.427Z,18.15
2022-10-04T10:36:44.688Z,18.12
2022-10-04T10:37:44.479Z,18.10
2022-10-04T10:38:44.507Z,18.03
2022-10-04T10:39:44.534Z,18.08
2022-10-04T10:40:44.557Z,18.00
2022-10-04T10:41:44.584Z,18.10
2022-10-04T10:42:44.612Z,18.07
2022-10-04T10:43:44.639Z,18.05
2022-10-04T10:44:44.698Z,18.14
2022-10-04T10:45:44.691Z,18.11
2022-10-04T10:46:45.035Z,18.14
2022-10-04T10:47:44.742Z,18.12
2022-10-04T10:48:44.769Z,18.10
2022-10-04T10:49:44.792Z,18.20
2022-10-04T10:50:44.817Z,18.12
2022-10-04T10:51:44.846Z,18.25
2022-10-04T10:52:44.876Z,18.29
2022-10-04T10:53:44.893Z,18.25
2022-10-04T10:54:44.924Z,18.23
2022-10-04T10:55:44.948Z,18.30
2022-10-04T10:56:45.280Z,18.32
2022-10-04T10:57:45.002Z,18.39
2022-10-04T10:58:45.025Z,18.36
2022-10-04T10:59:45.052Z,18.35
2022-10-04T11:00:45.072Z,18.41
2022-10-04T11:01:45.215Z,18.41
2022-10-04T11:02:50.272Z,18.48
2022-10-04T11:03:45.315Z,18.39
2022-10-04T11:04:45.182Z,18.41
2022-10-04T11:05:45.206Z,18.50
2022-10-04T11:06:45.488Z,18.48
2022-10-04T11:07:45.262Z,18.55
2022-10-04T11:08:45.284Z,18.54
2022-10-04T11:09:45.310Z,18.58
2022-10-04T11:10:47.920Z,18.54
2022-10-04T11:11:45.386Z,18.60
2022-10-04T11:12:45.428Z,18.69
2022-10-04T11:13:45.419Z,18.63
2022-10-04T11:14:45.441Z,18.73
2022-10-04T11:15:45.517Z,18.82
2022-10-04T11:16:45.826Z,18.73
2022-10-04T11:19:17.720Z,18.78
2022-10-04T11:20:17.194Z,18.70
2022-10-04T11:22:10.160Z,18.67
2022-10-04T11:23:10.178Z,18.67
2022-10-04T11:25:14.673Z,18.72
2022-10-04T11:26:14.219Z,18.85
2022-10-04T11:28:18.326Z,18.81
2022-10-04T11:29:18.268Z,18.72
2022-10-04T11:31:22.773Z,18.82
2022-10-04T11:32:22.302Z,18.88
2022-10-04T11:34:26.368Z,18.85
2022-10-04T11:35:26.339Z,18.87
2022-10-04T11:37:30.833Z,18.84
2022-10-04T11:38:30.374Z,18.88
2022-10-04T11:40:34.380Z,18.98
2022-10-04T11:41:34.399Z,18.99
2022-10-04T11:43:38.900Z,18.99
2022-10-04T11:44:38.447Z,19.00
2022-10-04T11:46:42.928Z,19.14
2022-10-04T11:47:42.479Z,19.14
2022-10-04T11:48:42.505Z,19.16
2022-10-04T11:49:42.528Z,19.11
2022-10-04T11:50:42.552Z,19.11
2022-10-04T11:51:42.578Z,19.13
2022-10-04T11:52:42.606Z,19.16
2022-10-04T11:53:42.638Z,19.22
2022-10-04T11:54:42.659Z,19.23
2022-10-04T11:55:42.689Z,19.16
2022-10-04T11:56:43.173Z,19.16
2022-10-04T11:57:42.736Z,19.18
2022-10-04T11:58:42.765Z,19.19
2022-10-04T11:59:42.792Z,19.25
2022-10-04T12:00:42.828Z,19.23
2022-10-04T12:01:42.843Z,19.25
2022-10-04T12:02:42.874Z,19.31
2022-10-04T12:03:42.983Z,19.39
2022-10-04T12:04:42.988Z,19.37
2022-10-04T12:05:42.956Z,19.41
2022-10-04T12:06:43.399Z,19.46
2022-10-04T12:07:43.004Z,19.48
2022-10-04T12:08:43.040Z,19.47
2022-10-04T12:09:43.058Z,19.47
2022-10-04T12:10:43.090Z,19.58
2022-10-04T12:11:43.113Z,19.51
2022-10-04T12:12:43.144Z,19.56
2022-10-04T12:13:43.168Z,19.59
2022-10-04T12:14:43.199Z,19.54
2022-10-04T12:15:43.217Z,19.55
2022-10-04T12:16:43.884Z,19.55
2022-10-04T12:17:43.282Z,19.61
2022-10-04T12:18:43.300Z,19.59
2022-10-04T12:19:43.339Z,19.61
2022-10-04T12:20:43.359Z,19.58
2022-10-04T12:21:43.437Z,19.63
2022-10-04T12:22:43.411Z,19.69
2022-10-04T12:23:43.435Z,19.73
2022-10-04T12:24:43.458Z,19.71
2022-10-04T12:25:43.487Z,19.66
2022-10-04T12:26:43.841Z,19.62
2022-10-04T12:27:43.540Z,19.71
2022-10-04T12:28:43.568Z,19.66
2022-10-04T12:29:43.598Z,19.77
2022-10-04T12:30:43.622Z,19.69
2022-10-04T12:31:43.727Z,19.73
2022-10-04T12:32:43.709Z,19.74
2022-10-04T12:33:43.703Z,19.77
2022-10-04T12:34:43.731Z,19.69
2022-10-04T12:35:43.782Z,19.71
2022-10-04T12:36:44.089Z,19.68
2022-10-04T12:37:43.817Z,19.81
2022-10-04T12:38:43.841Z,19.80
2022-10-04T12:39:43.875Z,19.86
2022-10-04T12:40:43.892Z,19.84
2022-10-04T12:41:43.936Z,19.92
2022-10-04T12:42:43.947Z,19.95
2022-10-04T12:43:43.975Z,19.92
2022-10-04T12:44:43.999Z,19.95
2022-10-04T12:45:44.080Z,20.02
2022-10-04T12:46:44.346Z,19.94
2022-10-04T12:47:44.082Z,19.98
2022-10-04T12:48:44.108Z,20.03
2022-10-04T12:49:44.135Z,19.99
2022-10-04T12:50:44.165Z,20.01
2022-10-04T12:51:44.189Z,19.98
2022-10-04T12:52:44.221Z,19.99
2022-10-04T12:53:44.288Z,19.96
2022-10-04T12:54:44.282Z,19.86
2022-10-04T12:55:44.300Z,19.92
2022-10-04T12:56:44.633Z,19.80
2022-10-04T12:57:44.356Z,19.80
2022-10-04T12:58:44.387Z,19.83
2022-10-04T12:59:44.410Z,19.86
2022-10-04T13:00:44.490Z,19.83
2022-10-04T13:01:44.500Z,19.92
2022-10-04T13:02:44.494Z,19.95
2022-10-04T13:03:44.517Z,19.87
2022-10-04T13:04:44.544Z,19.94
2022-10-04T13:05:44.571Z,19.92
2022-10-04T13:06:45.059Z,19.92
2022-10-04T13:07:44.623Z,20.08
2022-10-04T13:08:44.651Z,20.05
2022-10-04T13:09:59.834Z,20.02
2022-10-04T13:10:44.709Z,20.11
2022-10-04T13:11:44.736Z,19.99
2022-10-04T13:12:44.768Z,19.99
2022-10-04T13:13:44.808Z,20.02
2022-10-04T13:14:44.838Z,19.99
2022-10-04T13:17:44.899Z,20.05
2022-10-04T13:18:44.932Z,20.03
2022-10-04T13:19:44.954Z,20.10
2022-10-04T13:20:44.984Z,20.05
2022-10-04T13:21:45.300Z,20.03
2022-10-04T13:22:56.519Z,20.05
2022-10-04T13:23:45.062Z,20.02
2022-10-04T13:24:45.085Z,20.06
2022-10-04T13:25:45.125Z,20.11
2022-10-04T13:26:45.147Z,20.05
2022-10-04T13:27:45.181Z,20.11
2022-10-04T13:28:45.194Z,20.16
2022-10-04T13:29:45.228Z,20.16
2022-10-04T13:30:45.256Z,20.11
2022-10-04T13:31:45.664Z,20.16
2022-10-04T13:32:45.306Z,20.11
2022-10-04T13:33:45.334Z,20.13
2022-10-04T13:34:45.362Z,20.16
2022-10-04T13:35:45.386Z,20.16
2022-10-04T13:36:45.416Z,20.23
2022-10-04T13:37:45.440Z,20.29
2022-10-04T13:38:45.467Z,20.20
2022-10-04T13:39:45.498Z,20.24
2022-10-04T13:40:45.522Z,20.23
2022-10-04T13:41:45.829Z,20.17
2022-10-04T13:42:45.580Z,20.14
2022-10-04T13:43:45.607Z,20.16
2022-10-04T13:44:45.635Z,20.17
2022-10-04T13:45:45.704Z,20.11
2022-10-04T13:46:45.697Z,20.24
2022-10-04T13:47:45.714Z,20.13
2022-10-04T13:48:45.745Z,20.11
2022-10-04T13:49:45.773Z,20.10
2022-10-04T13:50:45.798Z,20.06
2022-10-04T13:51:46.149Z,20.23
2022-10-04T13:52:45.851Z,20.11
2022-10-04T13:53:47.192Z,20.14
2022-10-04T13:54:45.909Z,20.13
2022-10-04T13:55:45.936Z,20.14
2022-10-04T13:56:45.964Z,20.26
2022-10-04T13:57:46.068Z,20.13
2022-10-04T13:58:46.022Z,20.24
2022-10-04T13:59:46.064Z,20.29
2022-10-04T14:00:46.136Z,20.14
2022-10-04T14:01:46.433Z,20.29
2022-10-04T14:02:46.132Z,20.18
2022-10-04T14:03:46.209Z,20.16
2022-10-04T14:04:46.193Z,20.26
2022-10-04T14:05:46.210Z,20.29
2022-10-04T14:06:46.244Z,20.33
2022-10-04T14:07:46.265Z,20.23
2022-10-04T14:08:46.315Z,20.31
2022-10-04T14:09:46.319Z,20.29
2022-10-04T14:10:46.347Z,20.28
2022-10-04T14:11:46.801Z,20.28
2022-10-04T14:12:46.400Z,20.28
2022-10-04T14:13:46.429Z,20.26
2022-10-04T14:14:46.456Z,20.28
2022-10-04T14:15:46.486Z,20.29
2022-10-04T14:16:46.553Z,20.41
2022-10-04T14:17:46.542Z,20.29
2022-10-04T14:18:46.573Z,20.33
2022-10-04T14:19:46.593Z,20.36
2022-10-04T14:20:46.618Z,20.35
2022-10-04T14:21:47.142Z,20.33
2022-10-04T14:22:46.676Z,20.32
2022-10-04T14:23:46.728Z,20.31
2022-10-04T14:24:46.745Z,20.32
2022-10-04T14:25:46.756Z,20.39
2022-10-04T14:26:47.382Z,20.33
2022-10-04T14:27:46.813Z,20.39
2022-10-04T14:28:46.839Z,20.41
2022-10-04T14:29:46.873Z,20.41
2022-10-04T14:30:46.902Z,20.38
2022-10-04T14:31:47.319Z,20.39
2022-10-04T14:32:46.948Z,20.33
2022-10-04T14:33:46.978Z,20.32
2022-10-04T14:34:47.006Z,20.24
2022-10-04T14:35:47.032Z,20.35
2022-10-04T14:36:47.061Z,20.31
2022-10-04T14:37:47.089Z,20.31
2022-10-04T14:38:47.112Z,20.32
2022-10-04T14:39:47.159Z,20.31
2022-10-04T14:40:47.166Z,20.29
2022-10-04T14:41:47.197Z,20.28
2022-10-04T14:42:47.229Z,20.26
2022-10-04T14:43:47.252Z,20.31
2022-10-04T14:44:47.281Z,20.36
2022-10-04T14:45:47.368Z,20.29
2022-10-04T14:46:47.336Z,20.29
2022-10-04T14:47:47.411Z,20.42
2022-10-04T14:48:47.392Z,20.39
2022-10-04T14:49:47.416Z,20.39
2022-10-04T14:50:47.462Z,20.39
2022-10-04T14:51:47.475Z,20.31
2022-10-04T14:52:47.497Z,20.29
2022-10-04T14:53:47.526Z,20.24
2022-10-04T14:54:47.554Z,20.26
2022-10-04T14:55:47.587Z,20.13
2022-10-04T14:56:48.099Z,20.10
2022-10-04T14:57:47.641Z,20.01
2022-10-04T14:58:47.667Z,19.91
2022-10-04T14:59:47.704Z,19.95
2022-10-04T15:00:47.812Z,19.88
2022-10-04T15:01:47.860Z,19.78
2022-10-04T15:02:47.776Z,19.65
2022-10-04T15:03:47.802Z,19.74
2022-10-04T15:04:47.891Z,19.69
2022-10-04T15:05:47.858Z,19.73
2022-10-04T15:06:48.389Z,19.66
2022-10-04T15:07:47.913Z,19.65
2022-10-04T15:08:47.940Z,19.55
2022-10-04T15:09:47.974Z,19.55
2022-10-04T15:10:47.993Z,19.51
2022-10-04T15:12:02.461Z,19.50
2022-10-04T15:13:12.900Z,19.51
2022-10-04T15:13:48.074Z,19.51
2022-10-04T15:14:48.105Z,19.48
2022-10-04T15:15:48.153Z,19.61
2022-10-04T15:16:48.593Z,19.66
2022-10-04T15:17:48.184Z,19.66
2022-10-04T15:18:48.217Z,19.55
2022-10-04T15:19:48.238Z,19.68
2022-10-04T15:20:48.264Z,19.66
2022-10-04T15:21:48.290Z,19.66
2022-10-04T15:22:48.321Z,19.58
2022-10-04T15:23:48.346Z,19.69
2022-10-04T15:24:48.376Z,19.63
2022-10-04T15:25:48.408Z,19.66
2022-10-04T15:26:48.664Z,19.71
2022-10-04T15:27:48.458Z,19.66
2022-10-04T15:28:48.481Z,19.68
2022-10-04T15:29:48.510Z,19.68
2022-10-04T15:30:48.576Z,19.69
2022-10-04T15:31:48.564Z,19.68
2022-10-04T15:32:48.600Z,19.54
2022-10-04T15:33:48.619Z,19.59
2022-10-04T15:34:48.657Z,19.58